Pittsfield, PA (16340)

3:07 PM EDT on September 04, 2015 (GMT -0400)
Cheery Hill / kortwright Rd. | | Change Station
CLOSE
Current Station
Personal Weather Station
Location: Ashville, NY
Elevation: 1594 ft
Nearby Weather Stations

Elev 1594 ft 42.01 °N, 79.40 °W | Updated 14 seconds ago

Partly Cloudy
Partly Cloudy
89.2 °F
Feels Like 92 °F
N
1.3
Wind Variable Wind from SSW
Gusts 2.5 mph

Today
High -- | Low -- °F
--% Chance of Precip.
Yesterday
High -- | Low -- °F
Precip. -- in
6:46 AM 7:46 PM
Waning Gibbous, 57% visible
Pressure 30.11 in
Visibility 10.0 miles
Clouds Scattered Clouds 3700 ft
Mostly Cloudy 4400 ft
Heat Index 92 °F
Dew Point 67 °F
Humidity 48%
Rainfall 0.00 in
Snow Depth Not available.
UV 4.0 out of 12
Pollen 10.20 out of 12
Air Quality Not available.
Flu Activity Not available.
METAR KJHW 041855Z AUTO 21006KT 10SM SCT037 BKN044 28/19 A3011 RMK AO1 LTG DSNT ALQDS
Pressure 30.11 in
Visibility 10.0 miles
Clouds Scattered Clouds 3700 ft
Mostly Cloudy 4400 ft
Heat Index 92 °F
Dew Point 67 °F
Humidity 48%
Rainfall 0.00 in
Snow Depth Not available.
UV 4.0 out of 12
Pollen 10.20 out of 12
Air Quality Not available.
Flu Activity Not available.
METAR KJHW 041855Z AUTO 21006KT 10SM SCT037 BKN044 28/19 A3011 RMK AO1 LTG DSNT ALQDS

10-Day Weather Forecast

×

Almanac

Astronomy

Sep. 04, 2015 Rise Set
Actual Time
Civil Twilight
Nautical Twilight
Astronomical Twilight
Moon
Length of Visible Light
Length of Day
Tomorrow will be .
, % of the Moon is Illuminated

Today's Extremes

State Highs State Lows

Community

WunderPhotos

Upload Photos

1,852,267 photos uploaded!

WunderBlogs® & News

Nearby

Air Quality

  Air Quality AQ Index Pollutant
Not available.

Snow Depth

Station Depth Elevation

Earthquake Activity

City Distance Mag. Time & Date
Minimum magnitude displayed is 2.5.

Coastal Water Temperatures

Place Temperature

Stations

Nearby Weather Stations

Station Location Temp. Windchill Dew Point Humidity Wind Precip. Elev Updated Type